Terminal Aerodrome Forecast
Issued by NWS

Home | Current Version | Previous Version | Graphics & Text | Print | Product List | Glossary On
Versions: 1 2 3 4 5 6 7 8 9 10 11 12 13 14 15 16 17 18 19 20
000
FTUS43 KGRB 211135
TAFATW
TAF
KATW 211135Z 2112/2212 00000KT 3SM BR OVC250
      TEMPO 2112/2114 2SM BR
     FM211500 VRB03KT 6SM BR BKN250
     FM212200 06005KT P6SM OVC080
     FM220500 04008KT 5SM -RASN BR OVC012
     FM220800 03012KT 1SM -RASN BR OVC004=

USA.gov is the U.S. government's official web portal to all federal, state and local government web resources and services.